Time;durP1;ratioP1;P1;durP2;ratioP2;P2;SDS_P1;SDS_P2;PMS_P1;PMS_P2;Temp;Humidity;BMP_temperature;BMP_pressure;BME280_temperature;BME280_humidity;BME280_pressure;Samples;Min_cycle;Max_cycle;Signal;HPM_P1;HPM_P2
2022/03/14 00:02:21;;;;;;;4.47;4.07;;;7.50;39.80;7.60;96461.00;;;;5117064;28;20285;-83
2022/03/14 00:04:50;;;;;;;6.37;4.50;;;7.50;40.00;7.60;96464.00;;;;5116967;28;20227;-83
2022/03/14 00:07:17;;;;;;;4.80;4.30;;;7.50;40.10;7.60;96465.00;;;;5108612;28;20207;-83
2022/03/14 00:09:46;;;;;;;5.33;4.53;;;7.40;40.10;7.50;96469.00;;;;5096180;28;20699;-83
2022/03/14 00:12:19;;;;;;;4.90;4.30;;;7.40;40.30;7.50;96471.00;;;;5097375;28;20203;-83
2022/03/14 00:14:46;;;;;;;4.40;3.87;;;7.40;40.40;7.40;96470.00;;;;5096735;28;20227;-83
2022/03/14 00:17:14;;;;;;;5.93;4.30;;;7.40;40.50;7.40;96466.00;;;;5097700;28;20206;-82
2022/03/14 00:19:41;;;;;;;4.57;4.17;;;7.30;40.60;7.40;96469.00;;;;5095436;28;20187;-83
2022/03/14 00:22:10;;;;;;;4.87;4.20;;;7.30;40.60;7.40;96468.00;;;;5096217;28;20282;-83
2022/03/14 00:24:37;;;;;;;4.67;3.80;;;7.30;40.60;7.30;96480.00;;;;5096767;28;20223;-83
2022/03/14 00:27:13;;;;;;;5.17;4.40;;;7.20;40.60;7.30;96473.00;;;;5095399;28;20201;-83
2022/03/14 00:29:46;;;;;;;5.17;4.30;;;7.20;40.80;7.30;96485.00;;;;5097335;28;20191;-83
2022/03/14 00:32:13;;;;;;;5.10;4.07;;;7.20;40.80;7.20;96496.00;;;;5096570;28;20646;-83
2022/03/14 00:34:41;;;;;;;6.13;4.30;;;7.10;41.00;7.20;96496.00;;;;5096300;28;20581;-83
2022/03/14 00:37:08;;;;;;;5.13;4.30;;;7.10;41.10;7.20;96492.00;;;;5096763;28;20246;-83
2022/03/14 00:39:36;;;;;;;5.83;4.40;;;7.10;41.20;7.10;96503.00;;;;5097247;28;20294;-83
2022/03/14 00:42:05;;;;;;;6.20;4.70;;;7.10;41.20;7.10;96502.00;;;;5097223;28;20201;-83
2022/03/14 00:44:33;;;;;;;5.20;4.30;;;7.00;41.00;7.10;96510.00;;;;5112123;28;20219;-83
2022/03/14 00:47:00;;;;;;;4.83;4.30;;;7.00;40.80;7.00;96514.00;;;;5096864;28;20230;-84
2022/03/14 00:49:27;;;;;;;4.90;3.83;;;7.00;40.90;7.00;96517.00;;;;5096228;28;20203;-83
2022/03/14 00:51:56;;;;;;;4.43;4.00;;;7.00;40.90;7.00;96523.00;;;;5095978;28;20262;-83
2022/03/14 00:54:24;;;;;;;5.33;4.33;;;6.90;40.90;7.00;96526.00;;;;5096260;28;20230;-83
2022/03/14 00:56:51;;;;;;;5.17;4.20;;;6.90;41.70;6.90;96523.00;;;;5097559;28;20199;-83
2022/03/14 00:59:22;;;;;;;4.60;4.20;;;6.90;41.40;6.90;96507.00;;;;5097612;28;20631;-83
2022/03/14 01:01:49;;;;;;;6.53;4.27;;;6.80;41.30;6.80;96513.00;;;;5097866;28;20524;-83
2022/03/14 01:04:20;;;;;;;4.70;4.17;;;6.80;41.20;6.80;96519.00;;;;5097822;28;20223;-83
2022/03/14 01:06:48;;;;;;;6.37;4.17;;;6.80;41.40;6.80;96522.00;;;;5097190;28;20690;-83
2022/03/14 01:09:15;;;;;;;4.80;4.30;;;6.70;42.00;6.80;96520.00;;;;5096976;28;20263;-83
2022/03/14 01:11:44;;;;;;;4.63;4.13;;;6.70;41.60;6.80;96518.00;;;;5097072;28;20203;-83
2022/03/14 01:14:14;;;;;;;4.60;4.10;;;6.70;41.70;6.70;96523.00;;;;5098056;28;20254;-83
2022/03/14 01:16:43;;;;;;;6.10;4.87;;;6.70;41.80;6.70;96529.00;;;;5096283;28;20203;-82
2022/03/14 01:19:11;;;;;;;5.13;4.37;;;6.60;41.70;6.70;96524.00;;;;5097045;28;20252;-83
2022/03/14 01:21:39;;;;;;;7.50;3.93;;;6.60;41.80;6.70;96529.00;;;;5096901;28;20206;-82
2022/03/14 01:24:07;;;;;;;4.83;4.20;;;6.60;41.90;6.60;96532.00;;;;5095962;28;20223;-83
2022/03/14 01:26:35;;;;;;;5.67;4.63;;;6.60;42.00;6.60;96533.00;;;;5095729;28;20222;-83
2022/03/14 01:29:05;;;;;;;5.80;4.60;;;6.60;42.10;6.60;96543.00;;;;5095356;28;20286;-83
2022/03/14 01:31:32;;;;;;;5.37;4.87;;;6.50;42.20;6.60;96548.00;;;;5095190;28;20245;-83
2022/03/14 01:34:03;;;;;;;6.73;4.60;;;6.50;42.20;6.50;96552.00;;;;5095117;28;20223;-83
2022/03/14 01:36:30;;;;;;;5.47;4.47;;;6.50;42.30;6.50;96554.00;;;;5095195;28;20180;-82
2022/03/14 01:38:58;;;;;;;6.23;4.73;;;6.40;42.30;6.50;96565.00;;;;5094864;28;20691;-83
2022/03/14 01:41:26;;;;;;;4.57;3.97;;;6.40;42.50;6.40;96566.00;;;;5095093;28;20191;-82
2022/03/14 01:43:57;;;;;;;6.80;4.47;;;6.40;42.50;6.40;96567.00;;;;5096630;28;20215;-83
2022/03/14 01:46:27;;;;;;;6.30;4.33;;;6.30;42.50;6.40;96571.00;;;;5096578;28;20616;-83
2022/03/14 01:49:01;;;;;;;5.00;4.20;;;6.30;42.60;6.30;96572.00;;;;5096141;28;20669;-83
2022/03/14 01:51:33;;;;;;;4.87;4.23;;;6.30;42.80;6.30;96571.00;;;;5096607;28;20237;-83
2022/03/14 01:54:01;;;;;;;5.23;4.67;;;6.30;42.80;6.20;96580.00;;;;5096543;28;20585;-83
2022/03/14 01:56:28;;;;;;;4.13;3.77;;;6.20;42.80;6.20;96578.00;;;;5095895;28;20203;-83
2022/03/14 01:58:56;;;;;;;5.23;4.47;;;6.20;42.90;6.20;96594.00;;;;5096084;28;20195;-83
2022/03/14 02:01:23;;;;;;;4.73;4.20;;;6.10;42.80;6.10;96590.00;;;;5095851;28;20282;-83
2022/03/14 02:03:51;;;;;;;7.00;4.57;;;6.10;42.90;6.10;96598.00;;;;5095794;28;20215;-83
2022/03/14 02:06:19;;;;;;;5.70;4.60;;;6.10;43.00;6.10;96596.00;;;;5095566;28;20203;-83
2022/03/14 02:08:47;;;;;;;5.47;4.87;;;6.00;43.10;6.10;96612.00;;;;5096175;28;20288;-83
2022/03/14 02:11:14;;;;;;;6.67;5.07;;;6.00;43.20;6.10;96612.00;;;;5096385;28;20274;-83
2022/03/14 02:13:41;;;;;;;6.57;5.07;;;6.00;43.10;6.00;96613.00;;;;5097136;28;20659;-83
2022/03/14 02:16:10;;;;;;;6.30;4.70;;;6.00;43.20;6.00;96607.00;;;;5095939;28;20227;-82
2022/03/14 02:18:37;;;;;;;6.00;4.63;;;6.00;43.20;6.00;96600.00;;;;5099157;28;20197;-83
2022/03/14 02:21:12;;;;;;;5.60;4.77;;;5.90;42.90;6.00;96614.00;;;;5099933;28;20230;-83
2022/03/14 02:23:39;;;;;;;5.73;4.90;;;5.90;43.20;5.90;96622.00;;;;5098406;28;20219;-83
2022/03/14 02:26:07;;;;;;;5.80;4.40;;;5.90;43.20;5.90;96621.00;;;;5100406;28;20270;-83
2022/03/14 02:28:34;;;;;;;6.13;4.70;;;5.90;43.30;6.00;96628.00;;;;5098995;28;20223;-83
2022/03/14 02:31:04;;;;;;;4.90;4.40;;;5.90;43.30;6.00;96630.00;;;;5099207;28;20210;-84
2022/03/14 02:33:32;;;;;;;6.30;4.80;;;6.00;43.50;6.00;96631.00;;;;5098699;28;20600;-83
2022/03/14 02:35:59;;;;;;;4.40;4.00;;;6.00;43.40;6.00;96632.00;;;;5098571;28;20203;-83
2022/03/14 02:38:28;;;;;;;5.23;4.60;;;6.00;43.40;6.00;96639.00;;;;5097836;28;20617;-83
2022/03/14 02:40:55;;;;;;;4.93;4.43;;;6.00;43.50;6.00;96648.00;;;;5098172;28;20203;-83
2022/03/14 02:43:24;;;;;;;5.87;4.70;;;6.00;43.40;6.00;96648.00;;;;5097767;28;20286;-83
2022/03/14 02:45:52;;;;;;;4.87;4.37;;;5.90;43.40;6.00;96656.00;;;;5098080;28;20200;-84
2022/03/14 02:48:21;;;;;;;5.30;4.60;;;6.00;43.60;6.00;96668.00;;;;5097848;28;20199;-83
2022/03/14 02:50:53;;;;;;;7.23;4.87;;;6.00;43.70;6.00;96665.00;;;;5097647;28;20199;-83
2022/03/14 02:53:21;;;;;;;4.83;4.37;;;6.00;43.70;6.00;96672.00;;;;5097858;28;20222;-83
2022/03/14 02:55:49;;;;;;;6.03;4.97;;;6.00;43.70;6.00;96672.00;;;;5097548;28;20222;-84
2022/03/14 02:58:18;;;;;;;7.33;4.43;;;6.00;43.80;6.10;96690.00;;;;5098552;28;20249;-84
2022/03/14 03:00:45;;;;;;;5.53;4.87;;;6.00;44.00;6.10;96694.00;;;;5098213;28;20612;-84
2022/03/14 03:03:12;;;;;;;5.93;4.67;;;6.00;44.10;6.10;96695.00;;;;5098372;28;20199;-83
2022/03/14 03:05:43;;;;;;;6.60;4.53;;;6.00;44.10;6.10;96704.00;;;;5098387;28;20203;-83
2022/03/14 03:08:14;;;;;;;7.50;4.80;;;6.00;44.20;6.20;96697.00;;;;5098447;28;20655;-84
2022/03/14 03:10:42;;;;;;;7.20;4.83;;;6.10;44.40;6.20;96709.00;;;;5097790;28;20248;-84
2022/03/14 03:13:13;;;;;;;6.20;4.53;;;6.10;44.40;6.20;96710.00;;;;5096830;28;20431;-83
2022/03/14 03:15:40;;;;;;;7.97;5.00;;;6.10;44.50;6.30;96713.00;;;;5097232;28;20299;-83
2022/03/14 03:18:08;;;;;;;5.27;4.57;;;6.20;44.60;6.30;96723.00;;;;5097587;28;20229;-83
2022/03/14 03:20:38;;;;;;;5.93;4.83;;;6.20;44.30;6.40;96730.00;;;;5097055;28;20233;-83
2022/03/14 03:23:05;;;;;;;5.47;4.57;;;6.20;44.30;6.40;96731.00;;;;5098196;28;20191;-83
2022/03/14 03:25:32;;;;;;;5.67;5.10;;;6.30;44.40;6.40;96735.00;;;;5097181;28;20223;-84
2022/03/14 03:27:59;;;;;;;7.27;4.60;;;6.30;44.50;6.50;96744.00;;;;5096892;28;20282;-84
2022/03/14 03:30:30;;;;;;;6.33;5.20;;;6.30;44.50;6.50;96745.00;;;;5096018;28;20283;-84
2022/03/14 03:32:57;;;;;;;5.20;4.70;;;6.40;44.70;6.60;96754.00;;;;5097166;28;20195;-83
2022/03/14 03:35:24;;;;;;;7.70;5.10;;;6.40;44.60;6.70;96753.00;;;;5096572;28;20326;-83
2022/03/14 03:37:54;;;;;;;7.60;4.73;;;6.50;44.80;6.70;96760.00;;;;5096515;28;20197;-83
2022/03/14 03:40:21;;;;;;;5.80;4.67;;;6.50;44.80;6.80;96774.00;;;;5096356;28;20199;-83
2022/03/14 03:42:48;;;;;;;6.53;4.50;;;6.60;44.80;6.80;96769.00;;;;5096344;28;20286;-84
2022/03/14 03:45:17;;;;;;;6.57;5.13;;;6.60;44.80;6.80;96780.00;;;;5096509;28;20223;-84
2022/03/14 03:47:46;;;;;;;5.70;5.07;;;6.60;45.30;6.90;96782.00;;;;5096371;28;20279;-83
2022/03/14 03:50:15;;;;;;;7.63;5.43;;;6.70;44.80;6.90;96800.00;;;;5097099;28;20203;-83
2022/03/14 03:52:42;;;;;;;5.83;5.13;;;6.70;44.90;6.90;96798.00;;;;5096968;28;20199;-83
2022/03/14 03:55:10;;;;;;;9.40;6.10;;;6.70;44.90;6.90;96803.00;;;;5096496;28;20290;-84
2022/03/14 03:57:37;;;;;;;9.33;5.90;;;6.70;45.00;6.90;96811.00;;;;5096812;28;20206;-84
2022/03/14 04:00:07;;;;;;;9.13;6.47;;;6.70;45.40;6.90;96814.00;;;;5096786;28;20699;-83
2022/03/14 04:02:39;;;;;;;7.40;5.63;;;6.70;44.90;7.00;96819.00;;;;5097889;28;20668;-83
2022/03/14 04:05:09;;;;;;;8.90;5.37;;;6.80;45.00;7.00;96830.00;;;;5097066;28;20234;-83
2022/03/14 04:07:36;;;;;;;8.80;5.77;;;6.80;44.90;7.00;96841.00;;;;5098245;28;20199;-84
2022/03/14 04:10:04;;;;;;;6.73;5.30;;;6.80;44.90;7.10;96855.00;;;;5098112;28;20258;-83
2022/03/14 04:12:31;;;;;;;6.13;5.50;;;6.80;44.80;7.10;96855.00;;;;5097153;28;20248;-83
2022/03/14 04:15:04;;;;;;;7.00;5.57;;;6.90;44.90;7.10;96871.00;;;;5096966;28;20258;-84
2022/03/14 04:17:32;;;;;;;7.27;5.60;;;6.90;45.00;7.20;96872.00;;;;5097559;28;20554;-83
2022/03/14 04:20:02;;;;;;;8.00;5.60;;;7.00;44.90;7.20;96876.00;;;;5096414;28;20199;-84
2022/03/14 04:22:32;;;;;;;8.00;5.83;;;7.00;45.00;7.30;96884.00;;;;5096295;28;20195;-83
2022/03/14 04:24:59;;;;;;;6.67;5.50;;;7.10;45.10;7.30;96890.00;;;;5096506;28;20249;-83
2022/03/14 04:27:27;;;;;;;7.13;5.67;;;7.10;45.00;7.40;96891.00;;;;5096701;28;20195;-84
2022/03/14 04:29:54;;;;;;;7.00;5.60;;;7.20;45.10;7.40;96895.00;;;;5095657;28;20644;-84
2022/03/14 04:32:23;;;;;;;7.30;5.70;;;7.20;45.00;7.40;96904.00;;;;5096603;28;20195;-84
2022/03/14 04:34:50;;;;;;;6.13;5.50;;;7.30;44.90;7.50;96913.00;;;;5095181;28;20695;-83
2022/03/14 04:37:17;;;;;;;8.83;5.43;;;7.30;44.90;7.50;96913.00;;;;5095768;28;20660;-83
2022/03/14 04:39:46;;;;;;;6.80;5.77;;;7.20;44.70;7.50;96919.00;;;;5096342;28;20199;-83
2022/03/14 04:42:15;;;;;;;9.60;5.97;;;7.40;44.70;7.60;96925.00;;;;5094503;28;20564;-83
2022/03/14 04:44:44;;;;;;;11.60;9.33;;;7.40;44.80;7.60;96931.00;;;;5095203;28;20683;-84
2022/03/14 04:47:11;;;;;;;24.33;17.83;;;7.40;44.90;7.60;96937.00;;;;5094934;28;20191;-84
2022/03/14 04:49:39;;;;;;;22.40;16.80;;;7.40;45.60;7.60;96956.00;;;;5094681;28;20599;-83
2022/03/14 04:52:06;;;;;;;13.17;9.37;;;7.40;45.40;7.70;96955.00;;;;5093943;28;20289;-83
2022/03/14 04:54:34;;;;;;;10.47;7.83;;;7.50;45.60;7.70;96965.00;;;;5093941;28;20246;-84
2022/03/14 04:57:02;;;;;;;8.17;5.90;;;7.50;45.90;7.80;96981.00;;;;5093097;28;20229;-83
2022/03/14 04:59:29;;;;;;;8.93;6.20;;;7.60;46.40;7.80;96977.00;;;;5093301;28;20592;-84
2022/03/14 05:01:58;;;;;;;8.57;6.47;;;7.60;46.70;7.90;96976.00;;;;5094180;28;20633;-83
2022/03/14 05:04:25;;;;;;;8.13;5.83;;;7.70;46.90;8.00;96992.00;;;;5093926;28;20222;-84
2022/03/14 05:06:53;;;;;;;9.17;6.03;;;7.80;47.30;8.10;96996.00;;;;5093759;28;20203;-83
2022/03/14 05:09:20;;;;;;;8.30;6.20;;;7.90;47.60;8.10;97000.00;;;;5094923;28;20199;-84
2022/03/14 05:11:48;;;;;;;9.37;6.30;;;7.90;47.70;8.20;97007.00;;;;5094998;28;20230;-83
2022/03/14 05:14:16;;;;;;;9.10;6.30;;;8.00;47.80;8.30;97008.00;;;;5094367;28;20225;-83
2022/03/14 05:16:47;;;;;;;7.67;6.40;;;8.10;48.00;8.40;97009.00;;;;5094294;28;20223;-84
2022/03/14 05:19:14;;;;;;;8.00;6.37;;;8.20;48.10;8.50;97014.00;;;;5094425;28;20195;-83
2022/03/14 05:21:41;;;;;;;8.50;6.23;;;8.30;48.70;8.60;97009.00;;;;5093707;28;20191;-84
2022/03/14 05:24:11;;;;;;;9.17;6.90;;;8.40;48.10;8.70;97011.00;;;;5094131;28;20703;-84
2022/03/14 05:26:39;;;;;;;7.70;6.50;;;8.50;48.20;8.70;97013.00;;;;5093981;28;20366;-84
2022/03/14 05:29:12;;;;;;;9.30;6.50;;;8.50;48.30;8.80;97030.00;;;;5094568;28;20617;-84
2022/03/14 05:31:41;;;;;;;8.27;6.40;;;8.60;48.20;8.90;97048.00;;;;5094804;28;20217;-84
2022/03/14 05:34:08;;;;;;;9.60;6.97;;;8.70;48.30;8.90;97059.00;;;;5106608;22;20232;-87
2022/03/14 05:36:35;;;;;;;10.77;7.27;;;8.80;48.30;9.00;97060.00;;;;5071261;28;20219;-87
2022/03/14 05:39:02;;;;;;;9.90;6.47;;;8.80;48.30;9.00;97068.00;;;;5072012;28;20701;-85
2022/03/14 05:41:29;;;;;;;8.93;6.10;;;8.80;48.30;9.00;97081.00;;;;5071831;28;20215;-85
2022/03/14 05:43:55;;;;;;;11.43;6.80;;;8.80;48.20;9.10;97089.00;;;;5064314;28;20227;-85
2022/03/14 05:46:23;;;;;;;8.90;6.53;;;8.80;48.20;9.10;97087.00;;;;5051640;28;20279;-85
2022/03/14 05:48:51;;;;;;;9.57;6.70;;;8.90;48.20;9.10;97085.00;;;;5051975;28;20197;-85
2022/03/14 05:51:18;;;;;;;9.40;6.93;;;8.90;48.30;9.20;97097.00;;;;5051736;28;20223;-86
2022/03/14 05:53:45;;;;;;;8.63;6.53;;;8.90;48.30;9.20;97095.00;;;;5053762;28;20212;-85
2022/03/14 05:56:12;;;;;;;9.97;6.77;;;8.90;48.50;9.30;97104.00;;;;5055499;28;20706;-85
2022/03/14 05:58:39;;;;;;;8.80;6.27;;;9.00;48.50;9.40;97112.00;;;;5055538;28;20751;-85
2022/03/14 06:01:06;;;;;;;8.50;6.63;;;9.10;48.60;9.50;97118.00;;;;5055926;28;20197;-85
2022/03/14 06:03:33;;;;;;;8.00;6.23;;;9.00;48.50;9.50;97129.00;;;;5055828;28;20221;-85
2022/03/14 06:06:02;;;;;;;8.50;6.47;;;9.60;48.70;9.60;97139.00;;;;5055668;28;20210;-85
2022/03/14 06:08:29;;;;;;;8.80;6.30;;;9.20;48.70;9.60;97155.00;;;;5055581;28;20192;-85
2022/03/14 06:10:56;;;;;;;10.30;7.40;;;9.30;48.80;9.60;97151.00;;;;5056003;28;20201;-85
2022/03/14 06:13:23;;;;;;;11.00;6.93;;;9.30;49.00;9.70;97153.00;;;;5055907;28;20217;-88
2022/03/14 06:15:50;;;;;;;10.27;7.63;;;9.40;49.10;9.80;97162.00;;;;5055476;28;20569;-87
2022/03/14 06:18:17;;;;;;;9.17;7.27;;;9.40;49.10;9.90;97162.00;;;;5055923;28;20196;-88
2022/03/14 06:20:45;;;;;;;10.60;7.23;;;9.50;49.20;9.90;97167.00;;;;5055571;28;20193;-88
2022/03/14 06:23:16;;;;;;;10.97;7.43;;;9.50;49.30;10.10;97173.00;;;;5055558;28;20201;-87
2022/03/14 06:25:43;;;;;;;8.07;6.97;;;9.60;49.50;10.10;97166.00;;;;5055547;28;20235;-85
2022/03/14 06:28:11;;;;;;;9.97;7.90;;;9.70;49.40;10.20;97173.00;;;;5055546;28;20213;-86
2022/03/14 06:30:37;;;;;;;9.73;7.23;;;9.80;49.50;10.30;97171.00;;;;5055143;28;20193;-86
2022/03/14 06:33:05;;;;;;;10.40;7.27;;;9.90;49.60;10.40;97189.00;;;;5055673;28;20197;-86
2022/03/14 06:35:32;;;;;;;10.43;7.37;;;10.00;49.60;10.50;97191.00;;;;5054751;28;20247;-86
2022/03/14 06:38:00;;;;;;;9.47;7.57;;;10.00;49.60;10.60;97198.00;;;;5055267;28;20232;-86
2022/03/14 06:40:28;;;;;;;9.43;7.53;;;10.10;49.70;10.70;97194.00;;;;5055264;28;20205;-86
2022/03/14 06:42:55;;;;;;;10.57;8.00;;;10.20;49.80;10.80;97198.00;;;;5054969;28;20201;-86
2022/03/14 06:45:23;;;;;;;11.17;8.27;;;10.30;49.80;10.90;97207.00;;;;5054739;28;20235;-86
2022/03/14 06:47:51;;;;;;;11.13;8.37;;;10.40;49.80;10.90;97201.00;;;;5054902;28;20555;-86
2022/03/14 06:50:18;;;;;;;11.07;8.33;;;10.50;49.70;11.10;97209.00;;;;5054785;28;20576;-86
2022/03/14 06:52:45;;;;;;;8.93;7.73;;;10.60;49.80;11.10;97213.00;;;;5054902;28;20578;-86
2022/03/14 06:55:13;;;;;;;11.67;7.60;;;10.60;49.70;11.20;97207.00;;;;5054201;28;20270;-86
2022/03/14 06:57:42;;;;;;;11.13;8.20;;;10.70;49.80;11.30;97222.00;;;;5054725;28;20266;-86
2022/03/14 07:00:10;;;;;;;12.70;9.07;;;10.80;49.80;11.40;97228.00;;;;5054481;28;20289;-86
2022/03/14 07:02:40;;;;;;;14.47;8.30;;;10.90;49.90;11.40;97235.00;;;;5054635;28;20287;-86
2022/03/14 07:05:17;;;;;;;12.30;8.43;;;10.90;50.00;11.50;97241.00;;;;5053830;28;20702;-85
2022/03/14 07:07:45;;;;;;;10.93;7.97;;;11.00;50.20;11.60;97238.00;;;;5054431;28;20211;-87
2022/03/14 07:10:13;;;;;;;9.87;7.83;;;11.10;50.20;11.70;97256.00;;;;5054711;28;20201;-86
2022/03/14 07:12:46;;;;;;;11.37;8.70;;;11.20;50.20;11.80;97252.00;;;;5054889;28;20200;-86
2022/03/14 07:15:13;;;;;;;11.17;8.50;;;11.20;50.20;11.90;97254.00;;;;5054353;28;20912;-87
2022/03/14 07:17:42;;;;;;;11.90;8.70;;;11.50;50.40;12.00;97262.00;;;;5054272;28;20228;-86
2022/03/14 07:20:11;;;;;;;12.37;8.67;;;11.50;50.40;12.10;97260.00;;;;5054002;28;20624;-87
2022/03/14 07:22:53;;;;;;;12.20;8.20;;;11.60;50.50;12.20;97268.00;;;;5054396;28;20207;-87
2022/03/14 07:25:24;;;;;;;10.80;8.53;;;11.70;51.00;12.40;97269.00;;;;5053998;28;20217;-86
2022/03/14 07:27:53;;;;;;;12.17;8.93;;;11.80;50.70;12.50;97289.00;;;;5054262;28;20258;-87
2022/03/14 07:30:21;;;;;;;13.27;8.93;;;12.00;50.80;12.70;97285.00;;;;5054182;28;20204;-86
2022/03/14 07:32:48;;;;;;;12.53;8.43;;;12.10;50.60;12.90;97297.00;;;;5054251;28;20197;-87
2022/03/14 07:35:16;;;;;;;10.97;8.33;;;12.20;50.50;13.00;97301.00;;;;5053885;28;20225;-86
2022/03/14 07:37:44;;;;;;;11.47;8.67;;;12.40;50.60;13.20;97310.00;;;;5054178;28;20228;-86
2022/03/14 07:40:13;;;;;;;11.70;8.57;;;12.50;50.30;13.30;97303.00;;;;5053938;28;20577;-86
2022/03/14 07:42:43;;;;;;;9.73;7.63;;;12.60;50.40;13.40;97310.00;;;;5054243;28;20199;-86
2022/03/14 07:45:13;;;;;;;11.40;7.87;;;12.70;50.50;13.50;97316.00;;;;5053969;28;20647;-86
2022/03/14 07:47:40;;;;;;;10.23;7.50;;;12.80;50.70;13.60;97311.00;;;;5054092;28;20702;-87
2022/03/14 07:50:10;;;;;;;11.03;8.00;;;12.90;50.70;13.70;97319.00;;;;5054245;28;20193;-86
2022/03/14 07:52:38;;;;;;;10.97;8.47;;;13.10;50.80;13.90;97333.00;;;;5053736;28;20745;-86
2022/03/14 07:55:08;;;;;;;8.87;7.60;;;13.20;50.90;14.00;97342.00;;;;5053597;28;20702;-86
2022/03/14 07:57:36;;;;;;;9.67;7.47;;;13.30;50.80;14.20;97352.00;;;;5053661;28;20228;-86
2022/03/14 08:00:08;;;;;;;11.37;7.77;;;13.40;50.60;14.30;97352.00;;;;5054200;28;20193;-87
2022/03/14 08:02:37;;;;;;;11.37;7.67;;;13.50;50.60;14.50;97354.00;;;;5054403;28;20588;-87
2022/03/14 08:05:09;;;;;;;10.37;7.13;;;13.70;50.60;14.70;97357.00;;;;5063904;28;20221;-87
2022/03/14 08:07:37;;;;;;;8.20;6.63;;;13.80;50.60;14.90;97355.00;;;;5064490;28;20200;-87
2022/03/14 08:10:09;;;;;;;9.87;6.70;;;14.00;50.80;15.10;97356.00;;;;5057448;28;20288;-86
2022/03/14 08:12:46;;;;;;;7.00;5.87;;;14.20;50.70;15.30;97359.00;;;;5056662;28;20208;-87
2022/03/14 08:15:20;;;;;;;5.53;4.67;;;14.40;50.80;15.40;97365.00;;;;5054786;28;20266;-87
2022/03/14 08:17:49;;;;;;;4.33;3.20;;;14.60;50.80;15.50;97369.00;;;;5055007;28;20566;-87
2022/03/14 08:20:17;;;;;;;3.33;3.03;;;14.70;50.50;15.50;97368.00;;;;5055630;28;20223;-86
2022/03/14 08:22:45;;;;;;;3.87;3.57;;;14.80;50.40;15.50;97374.00;;;;5057574;28;20200;-85
2022/03/14 08:25:13;;;;;;;2.60;2.40;;;14.90;50.40;15.60;97380.00;;;;5057525;28;20216;-86
2022/03/14 08:27:40;;;;;;;3.23;2.93;;;15.00;50.50;15.80;97383.00;;;;5056648;28;20231;-86
2022/03/14 08:30:09;;;;;;;2.60;2.40;;;15.10;50.80;16.00;97383.00;;;;5055415;28;20192;-86
2022/03/14 08:32:39;;;;;;;2.93;2.53;;;15.20;50.80;16.20;97385.00;;;;5054966;28;20200;-87
2022/03/14 08:35:09;;;;;;;3.20;2.40;;;15.50;51.10;16.50;97376.00;;;;5055069;28;20311;-87
2022/03/14 08:37:38;;;;;;;3.00;2.13;;;15.60;51.20;16.70;97386.00;;;;5060909;28;20309;-87
2022/03/14 08:40:09;;;;;;;2.43;2.23;;;15.70;50.90;17.00;97389.00;;;;5054733;28;20280;-86
2022/03/14 08:42:36;;;;;;;2.43;2.23;;;16.00;50.90;17.20;97396.00;;;;5054758;28;20292;-87
2022/03/14 08:45:05;;;;;;;2.30;2.10;;;16.20;50.90;17.50;97406.00;;;;5055226;28;20227;-86
2022/03/14 08:47:34;;;;;;;1.87;1.77;;;16.40;50.70;17.80;97416.00;;;;5055015;28;20200;-87
2022/03/14 08:50:02;;;;;;;2.23;1.93;;;16.60;50.50;18.00;97418.00;;;;5054716;28;20624;-87
2022/03/14 08:52:31;;;;;;;2.30;2.10;;;16.80;50.10;18.10;97416.00;;;;5054848;28;20192;-87
2022/03/14 08:54:58;;;;;;;2.30;2.10;;;17.10;49.80;18.30;97420.00;;;;5057023;28;20793;-86
2022/03/14 08:57:26;;;;;;;1.87;1.77;;;17.20;49.20;18.30;97415.00;;;;5060434;28;20231;-86
2022/03/14 08:59:54;;;;;;;1.73;1.63;;;17.40;49.00;18.40;97419.00;;;;5058364;28;20585;-86
2022/03/14 09:02:21;;;;;;;1.87;1.77;;;17.50;48.80;18.50;97418.00;;;;5059942;28;20197;-86
2022/03/14 09:04:48;;;;;;;1.60;1.50;;;17.70;48.40;18.50;97425.00;;;;5059601;28;20308;-86
2022/03/14 09:07:26;;;;;;;1.03;1.00;;;17.80;48.50;18.70;97431.00;;;;5063374;28;20211;-86
2022/03/14 09:09:54;;;;;;;1.00;1.00;;;18.00;48.80;19.00;97430.00;;;;5065058;28;20284;-85
2022/03/14 09:12:22;;;;;;;1.40;1.30;;;18.30;48.60;19.20;97430.00;;;;5056379;28;20283;-86
2022/03/14 09:14:50;;;;;;;0.87;0.87;;;18.70;48.30;19.30;97431.00;;;;5054185;28;20225;-86
2022/03/14 09:17:17;;;;;;;0.83;0.83;;;19.00;48.30;19.50;97434.00;;;;5053666;28;20220;-87
2022/03/14 09:19:44;;;;;;;0.80;0.80;;;19.50;47.90;19.70;97441.00;;;;5053797;28;20863;-88
2022/03/14 09:22:11;;;;;;;0.90;0.90;;;19.90;47.50;19.90;97439.00;;;;5053562;28;20203;-87
2022/03/14 09:24:39;;;;;;;0.90;0.90;;;20.40;47.10;20.10;97443.00;;;;5053541;28;20723;-86
2022/03/14 09:27:08;;;;;;;0.60;0.60;;;20.90;46.20;20.40;97443.00;;;;5054162;28;20245;-87
2022/03/14 09:29:35;;;;;;;0.57;0.57;;;21.30;45.20;20.60;97444.00;;;;5053636;28;20291;-87
2022/03/14 09:32:02;;;;;;;1.03;0.80;;;21.70;44.70;20.90;97457.00;;;;5055368;28;20198;-87
2022/03/14 09:34:29;;;;;;;0.80;0.67;;;21.90;44.20;21.00;97452.00;;;;5054140;28;20323;-87
2022/03/14 09:36:57;;;;;;;0.40;0.40;;;22.10;43.30;21.20;97471.00;;;;5054355;28;20299;-87
2022/03/14 09:39:24;;;;;;;0.40;0.40;;;22.30;42.70;21.40;97478.00;;;;5058339;28;20292;-87
2022/03/14 09:41:53;;;;;;;0.50;0.50;;;22.40;41.90;21.50;97467.00;;;;5054297;28;20291;-86
2022/03/14 09:44:22;;;;;;;0.43;0.40;;;22.50;41.60;21.60;97475.00;;;;5054981;28;20273;-87
2022/03/14 09:46:50;;;;;;;0.40;0.40;;;22.50;41.50;21.70;97475.00;;;;5053319;28;20295;-86
2022/03/14 09:49:19;;;;;;;0.40;0.40;;;22.50;40.90;21.70;97463.00;;;;5060253;28;20211;-85
2022/03/14 09:51:47;;;;;;;0.50;0.50;;;22.50;40.70;21.60;97474.00;;;;5054206;28;20207;-87
2022/03/14 09:54:14;;;;;;;0.40;0.40;;;22.40;40.20;21.50;97469.00;;;;5054218;28;20228;-86
2022/03/14 09:56:43;;;;;;;0.43;0.43;;;22.20;40.20;21.40;97471.00;;;;5053864;28;20645;-86
2022/03/14 09:59:13;;;;;;;0.30;0.30;;;22.00;40.20;21.30;97461.00;;;;5053518;28;20197;-87
2022/03/14 10:01:42;;;;;;;0.40;0.40;;;21.80;40.10;21.20;97468.00;;;;5055430;28;20199;-87
2022/03/14 10:04:10;;;;;;;1.27;0.40;;;21.70;40.10;21.10;97465.00;;;;5053694;28;20247;-86
2022/03/14 10:06:40;;;;;;;1.60;0.50;;;21.50;40.30;21.00;97466.00;;;;5053673;28;20295;-86
2022/03/14 10:09:08;;;;;;;0.87;0.50;;;21.40;40.20;20.90;97479.00;;;;5053560;28;20289;-87
2022/03/14 10:11:36;;;;;;;0.30;0.30;;;21.20;40.50;20.80;97472.00;;;;5054794;28;20283;-86
2022/03/14 10:14:05;;;;;;;0.33;0.33;;;20.90;40.40;20.90;97473.00;;;;5053839;28;20210;-87
2022/03/14 10:16:33;;;;;;;0.40;0.30;;;21.20;41.00;21.00;97464.00;;;;5053933;28;20269;-87
2022/03/14 10:19:05;;;;;;;0.23;0.23;;;21.20;41.00;21.00;97456.00;;;;5057928;28;20575;-88
2022/03/14 10:21:37;;;;;;;0.40;0.40;;;21.40;41.20;21.10;97471.00;;;;5057856;28;20181;-89
2022/03/14 10:24:07;;;;;;;0.27;0.20;;;21.60;40.70;21.10;97470.00;;;;5062711;28;20220;-88
2022/03/14 10:26:37;;;;;;;0.47;0.30;;;21.70;40.20;21.10;97474.00;;;;5057067;28;20207;-88
2022/03/14 10:29:12;;;;;;;0.23;0.17;;;21.80;39.40;21.00;97471.00;;;;5063785;28;20203;-89
2022/03/14 10:31:42;;;;;;;0.67;0.13;;;21.80;38.50;20.80;97478.00;;;;5065446;28;20201;-89
2022/03/14 10:34:14;;;;;;;0.30;0.30;;;21.80;38.10;20.70;97481.00;;;;5067631;28;20712;-89
2022/03/14 10:36:51;;;;;;;0.53;0.20;;;21.60;38.10;20.60;97483.00;;;;5066520;28;20229;-89
2022/03/14 10:39:22;;;;;;;0.30;0.30;;;21.40;37.90;20.40;97482.00;;;;5057475;28;20207;-88
2022/03/14 10:42:05;;;;;;;0.23;0.10;;;21.20;38.20;20.30;97488.00;;;;5061349;28;20208;-89
2022/03/14 10:44:33;;;;;;;0.83;0.17;;;21.00;38.20;20.20;97478.00;;;;5063674;28;20281;-89
2022/03/14 10:47:01;;;;;;;0.07;0.07;;;20.80;38.50;20.10;97476.00;;;;5064517;28;20208;-88
2022/03/14 10:49:33;;;;;;;0.30;0.10;;;20.70;39.00;20.10;97484.00;;;;5064570;28;20247;-90
2022/03/14 10:52:03;;;;;;;0.30;0.30;;;20.60;39.20;20.10;97489.00;;;;5065600;28;20231;-89
2022/03/14 10:54:35;;;;;;;0.20;0.20;;;20.60;39.60;20.10;97487.00;;;;5063488;28;20217;-89
2022/03/14 10:57:09;;;;;;;0.83;0.20;;;20.60;38.90;20.10;97489.00;;;;5062840;28;21396;-88
2022/03/14 10:59:41;;;;;;;0.20;0.20;;;20.70;39.00;20.10;97492.00;;;;5062967;28;20283;-89
2022/03/14 11:02:11;;;;;;;0.10;0.10;;;20.50;38.50;20.00;97502.00;;;;5063211;28;20283;-89
2022/03/14 11:04:45;;;;;;;0.20;0.20;;;20.40;38.80;20.00;97501.00;;;;5060229;28;20262;-88
2022/03/14 11:07:13;;;;;;;0.10;0.10;;;20.30;39.00;20.00;97495.00;;;;5059981;28;20197;-89
2022/03/14 11:09:43;;;;;;;0.20;0.20;;;20.20;39.20;20.00;97493.00;;;;5061300;28;20228;-89